createdAt,value
2023-03-08T00:01:12.487Z,99.90
2023-03-08T00:03:39.553Z,99.90
2023-03-08T00:06:07.305Z,99.90
2023-03-08T00:08:34.140Z,99.90
2023-03-08T00:11:04.211Z,99.90
2023-03-08T00:13:31.123Z,99.90
2023-03-08T00:16:05.201Z,99.90
2023-03-08T00:18:33.911Z,99.90
2023-03-08T00:21:01.891Z,99.90
2023-03-08T00:23:28.689Z,99.90
2023-03-08T00:25:55.659Z,99.90
2023-03-08T00:28:23.424Z,99.90
2023-03-08T00:30:59.214Z,99.90
2023-03-08T00:33:26.286Z,99.90
2023-03-08T00:36:07.020Z,99.90
2023-03-08T00:38:35.576Z,99.90
2023-03-08T00:41:02.864Z,99.90
2023-03-08T00:43:32.141Z,99.90
2023-03-08T00:45:59.047Z,99.90
2023-03-08T00:48:25.967Z,99.90
2023-03-08T00:50:52.948Z,99.90
2023-03-08T00:53:19.780Z,99.90
2023-03-08T00:55:57.374Z,99.90
2023-03-08T00:58:25.790Z,99.90
2023-03-08T01:00:52.687Z,99.90
2023-03-08T01:03:20.193Z,99.90
2023-03-08T01:05:50.033Z,99.90
2023-03-08T01:08:17.391Z,99.90
2023-03-08T01:10:56.841Z,99.90
2023-03-08T01:13:24.355Z,99.90
2023-03-08T01:15:51.200Z,99.90
2023-03-08T01:18:17.998Z,99.90
2023-03-08T01:20:44.835Z,99.90
2023-03-08T01:23:12.036Z,99.90
2023-03-08T01:25:38.876Z,99.90
2023-03-08T01:28:05.866Z,99.90
2023-03-08T01:30:32.664Z,99.90
2023-03-08T01:32:59.637Z,99.90
2023-03-08T01:35:26.617Z,99.90
2023-03-08T01:37:53.638Z,99.90
2023-03-08T01:40:21.504Z,99.90
2023-03-08T01:42:48.364Z,99.90
2023-03-08T01:46:13.973Z,99.90
2023-03-08T01:48:49.344Z,99.90
2023-03-08T01:51:25.725Z,99.90
2023-03-08T01:53:52.760Z,99.90
2023-03-08T01:56:20.113Z,99.90
2023-03-08T01:58:47.791Z,99.90
2023-03-08T02:01:15.101Z,99.90
2023-03-08T02:03:42.311Z,99.90
2023-03-08T02:06:09.346Z,99.90
2023-03-08T02:08:36.252Z,99.90
2023-03-08T02:11:03.105Z,99.90
2023-03-08T02:13:29.923Z,99.90
2023-03-08T02:15:57.578Z,99.90
2023-03-08T02:18:24.460Z,99.90
2023-03-08T02:20:51.338Z,99.90
2023-03-08T02:23:20.844Z,99.90
2023-03-08T02:25:56.560Z,99.90
2023-03-08T02:28:24.529Z,99.90
2023-03-08T02:30:52.957Z,99.90
2023-03-08T02:33:19.753Z,99.90
2023-03-08T02:35:46.619Z,99.90
2023-03-08T02:38:14.903Z,99.90
2023-03-08T02:40:41.773Z,99.90
2023-03-08T02:43:09.447Z,99.90
2023-03-08T02:45:39.790Z,99.90
2023-03-08T02:48:08.407Z,99.90
2023-03-08T02:50:36.620Z,99.90
2023-03-08T02:53:04.651Z,99.90
2023-03-08T02:55:36.126Z,99.90
2023-03-08T02:58:08.111Z,99.90
2023-03-08T03:00:34.991Z,99.90
2023-03-08T03:03:02.072Z,99.90
2023-03-08T03:05:29.016Z,99.90
2023-03-08T03:07:58.739Z,99.90
2023-03-08T03:10:27.429Z,99.90
2023-03-08T03:12:54.343Z,99.90
2023-03-08T03:15:25.159Z,99.90
2023-03-08T03:17:56.704Z,99.90
2023-03-08T03:20:23.596Z,99.90
2023-03-08T03:22:50.468Z,99.90
2023-03-08T03:25:19.543Z,99.90
2023-03-08T03:27:47.882Z,99.90
2023-03-08T03:30:16.108Z,99.90
2023-03-08T03:32:43.807Z,99.90
2023-03-08T03:35:11.559Z,99.90
2023-03-08T03:37:38.466Z,99.90
2023-03-08T03:40:06.517Z,99.90
2023-03-08T03:42:33.495Z,99.90
2023-03-08T03:45:06.788Z,99.90
2023-03-08T03:47:34.652Z,99.90
2023-03-08T03:50:05.280Z,99.90
2023-03-08T03:52:42.753Z,99.90
2023-03-08T03:55:09.984Z,99.90
2023-03-08T03:57:37.858Z,99.90
2023-03-08T04:00:06.090Z,99.90
2023-03-08T04:02:40.566Z,99.90
2023-03-08T04:05:10.571Z,99.90
2023-03-08T04:07:38.448Z,99.90
2023-03-08T04:10:06.882Z,99.90
2023-03-08T04:12:35.298Z,99.90
2023-03-08T04:15:02.934Z,99.90
2023-03-08T04:17:32.488Z,99.90
2023-03-08T04:19:59.359Z,99.90
2023-03-08T04:22:27.961Z,99.90
2023-03-08T04:25:03.476Z,99.90
2023-03-08T04:27:39.635Z,99.90
2023-03-08T04:30:07.585Z,99.90
2023-03-08T04:32:35.741Z,99.90
2023-03-08T04:35:03.034Z,99.90
2023-03-08T04:37:32.486Z,99.90
2023-03-08T04:40:09.447Z,99.90
2023-03-08T04:42:42.653Z,99.90
2023-03-08T04:45:11.758Z,99.90
2023-03-08T04:47:39.842Z,99.90
2023-03-08T04:50:08.221Z,99.90
2023-03-08T04:52:35.763Z,99.90
2023-03-08T04:55:05.292Z,99.90
2023-03-08T04:57:32.188Z,99.90
2023-03-08T05:00:00.589Z,99.90
2023-03-08T05:02:27.738Z,99.90
2023-03-08T05:04:54.611Z,99.90
2023-03-08T05:07:21.844Z,99.90
2023-03-08T05:09:50.745Z,99.90
2023-03-08T05:12:17.615Z,99.90
2023-03-08T05:14:49.594Z,99.90
2023-03-08T05:17:16.799Z,99.90
2023-03-08T05:19:44.815Z,99.90
2023-03-08T05:22:14.391Z,99.90
2023-03-08T05:24:48.338Z,99.90
2023-03-08T05:27:16.749Z,99.90
2023-03-08T05:29:44.837Z,99.90
2023-03-08T05:32:12.436Z,99.90
2023-03-08T05:34:40.329Z,99.90
2023-03-08T05:37:10.827Z,99.90
2023-03-08T05:39:39.826Z,99.90
2023-03-08T05:42:15.432Z,99.90
2023-03-08T05:44:44.571Z,99.90
2023-03-08T05:47:13.067Z,99.90
2023-03-08T05:49:40.393Z,99.90
2023-03-08T05:52:08.492Z,99.90
2023-03-08T05:54:35.818Z,99.90
2023-03-08T05:57:08.332Z,99.90
2023-03-08T05:59:36.255Z,99.90
2023-03-08T06:02:04.448Z,99.90
2023-03-08T06:04:38.988Z,99.90
2023-03-08T06:07:05.961Z,99.90
2023-03-08T06:09:37.981Z,99.90
2023-03-08T06:12:07.572Z,99.90
2023-03-08T06:14:34.565Z,99.90
2023-03-08T06:17:01.941Z,99.90
2023-03-08T06:19:32.465Z,99.90
2023-03-08T06:21:59.338Z,99.90
2023-03-08T06:24:27.588Z,99.90
2023-03-08T06:26:57.408Z,99.90
2023-03-08T06:29:24.274Z,99.90
2023-03-08T06:31:51.519Z,99.90
2023-03-08T06:34:19.201Z,99.90
2023-03-08T06:36:50.392Z,99.90
2023-03-08T06:39:17.743Z,99.90
2023-03-08T06:41:44.614Z,99.90
2023-03-08T06:44:13.387Z,99.90
2023-03-08T06:46:40.287Z,99.90
2023-03-08T06:49:07.867Z,99.90
2023-03-08T06:51:36.385Z,99.90
2023-03-08T06:54:03.418Z,99.90
2023-03-08T06:56:30.330Z,99.90
2023-03-08T06:58:57.263Z,99.90
2023-03-08T07:01:24.154Z,99.90
2023-03-08T07:03:52.591Z,99.90
2023-03-08T07:06:19.535Z,99.90
2023-03-08T07:08:46.358Z,99.90
2023-03-08T07:11:13.298Z,99.90
2023-03-08T07:13:40.290Z,99.90
2023-03-08T07:16:11.279Z,99.90
2023-03-08T07:18:38.236Z,99.90
2023-03-08T07:21:05.313Z,99.90
2023-03-08T07:23:32.238Z,99.90
2023-03-08T07:25:59.212Z,99.90
2023-03-08T07:28:26.032Z,99.90
2023-03-08T07:30:53.201Z,99.90
2023-03-08T07:33:20.476Z,99.90
2023-03-08T07:35:47.354Z,99.90
2023-03-08T07:38:14.439Z,99.90
2023-03-08T07:40:41.380Z,99.90
2023-03-08T07:43:08.320Z,99.90
2023-03-08T07:45:55.444Z,99.90
2023-03-08T07:48:22.316Z,99.90
2023-03-08T07:50:49.243Z,99.90
2023-03-08T07:53:16.139Z,99.90
2023-03-08T07:55:43.244Z,99.90
2023-03-08T07:58:10.071Z,99.90
2023-03-08T08:00:36.965Z,99.90
2023-03-08T08:03:03.957Z,99.90
2023-03-08T08:05:30.936Z,99.90
2023-03-08T08:07:57.892Z,99.90
2023-03-08T08:10:24.711Z,99.90
2023-03-08T08:12:51.585Z,99.90
2023-03-08T08:15:19.230Z,99.90
2023-03-08T08:17:46.156Z,99.90
2023-03-08T08:20:13.013Z,99.90
2023-03-08T08:22:39.862Z,99.90
2023-03-08T08:25:07.306Z,99.90
2023-03-08T08:27:34.581Z,99.90
2023-03-08T08:30:01.770Z,99.90
2023-03-08T08:32:29.079Z,99.90
2023-03-08T08:34:55.968Z,99.90
2023-03-08T08:37:23.037Z,99.90
2023-03-08T08:39:49.882Z,99.90
2023-03-08T08:42:17.250Z,99.90
2023-03-08T08:44:44.397Z,99.90
2023-03-08T08:47:11.448Z,99.90
2023-03-08T08:49:38.307Z,99.90
2023-03-08T08:52:05.433Z,99.90
2023-03-08T08:54:33.837Z,99.90
2023-03-08T08:57:00.815Z,99.90
2023-03-08T08:59:27.863Z,99.90
2023-03-08T09:01:54.768Z,99.90
2023-03-08T09:04:21.794Z,99.90
2023-03-08T09:06:48.769Z,99.90
2023-03-08T09:09:16.554Z,99.90
2023-03-08T09:11:54.075Z,99.90
2023-03-08T09:14:21.984Z,99.90
2023-03-08T09:16:49.656Z,99.90
2023-03-08T09:19:17.946Z,99.90
2023-03-08T09:21:44.968Z,99.90
2023-03-08T09:24:12.093Z,99.90
2023-03-08T09:26:39.135Z,99.90
2023-03-08T09:29:07.420Z,99.90
2023-03-08T09:31:35.737Z,99.90
2023-03-08T09:34:04.834Z,99.90
2023-03-08T09:36:31.674Z,99.90
2023-03-08T09:38:58.560Z,99.90
2023-03-08T09:41:44.371Z,99.90
2023-03-08T09:45:08.625Z,99.90
2023-03-08T09:47:42.187Z,99.90
2023-03-08T09:50:40.715Z,99.90
2023-03-08T09:53:11.063Z,99.90
2023-03-08T09:55:42.343Z,99.90
2023-03-08T09:58:33.474Z,99.90
2023-03-08T10:01:25.113Z,99.90
2023-03-08T10:04:10.527Z,99.90
2023-03-08T10:06:56.024Z,99.90
2023-03-08T10:09:40.422Z,99.90
2023-03-08T10:12:26.541Z,99.90
2023-03-08T10:15:02.853Z,99.90
2023-03-08T10:17:57.943Z,99.90
2023-03-08T10:20:43.064Z,99.90
2023-03-08T10:23:16.716Z,99.90
2023-03-08T10:25:43.884Z,99.90
2023-03-08T10:28:16.108Z,99.90
2023-03-08T10:30:58.700Z,99.90
2023-03-08T10:33:30.706Z,99.90
2023-03-08T10:36:22.128Z,99.90
2023-03-08T10:39:09.060Z,99.90
2023-03-08T10:41:45.306Z,99.90
2023-03-08T10:47:31.425Z,99.90
2023-03-08T10:50:22.131Z,99.90
2023-03-08T10:52:51.160Z,99.90
2023-03-08T10:55:18.279Z,99.90
2023-03-08T10:58:03.689Z,99.90
2023-03-08T11:00:32.147Z,99.90
2023-03-08T11:03:04.092Z,99.90
2023-03-08T11:05:30.973Z,99.90
2023-03-08T11:07:59.113Z,99.90
2023-03-08T11:10:27.471Z,99.90
2023-03-08T11:13:31.408Z,99.90
2023-03-08T11:16:23.209Z,99.90
2023-03-08T11:19:03.087Z,99.90
2023-03-08T11:21:35.965Z,99.90
2023-03-08T11:24:30.192Z,99.90
2023-03-08T11:27:20.258Z,99.90
2023-03-08T11:29:59.149Z,99.90
2023-03-08T11:32:31.886Z,99.90
2023-03-08T11:35:31.447Z,99.90
2023-03-08T11:38:30.466Z,99.90
2023-03-08T11:41:34.993Z,99.90
2023-03-08T11:44:15.727Z,99.90
2023-03-08T11:47:01.598Z,99.90
2023-03-08T11:49:44.015Z,99.90
2023-03-08T11:52:47.146Z,99.90
2023-03-08T11:55:20.761Z,99.90
2023-03-08T11:57:53.380Z,99.90
2023-03-08T12:00:33.886Z,99.90
2023-03-08T12:03:04.890Z,99.90
2023-03-08T12:05:36.787Z,99.90
2023-03-08T12:08:09.135Z,99.90
2023-03-08T12:10:49.954Z,99.90
2023-03-08T12:13:35.402Z,99.90
2023-03-08T12:16:14.788Z,99.90
2023-03-08T12:19:06.648Z,99.90
2023-03-08T12:21:40.348Z,99.90
2023-03-08T12:24:19.224Z,99.90
2023-03-08T12:26:52.681Z,99.90
2023-03-08T12:29:43.376Z,99.90
2023-03-08T12:32:11.259Z,99.90
2023-03-08T12:34:40.281Z,99.90
2023-03-08T12:37:24.939Z,99.90
2023-03-08T12:39:56.976Z,99.90
2023-03-08T12:42:40.363Z,99.90
2023-03-08T12:45:27.941Z,99.90
2023-03-08T12:48:08.727Z,99.90
2023-03-08T12:50:42.944Z,99.90
2023-03-08T12:53:38.045Z,99.90
2023-03-08T12:56:09.122Z,99.90
2023-03-08T12:58:56.168Z,99.90
2023-03-08T13:01:44.049Z,99.90
2023-03-08T13:04:41.042Z,99.90
2023-03-08T13:07:40.169Z,99.90
2023-03-08T13:10:24.520Z,99.90
2023-03-08T13:13:09.875Z,99.90
2023-03-08T13:15:40.093Z,99.90
2023-03-08T13:18:08.624Z,99.90
2023-03-08T13:20:57.357Z,99.90
2023-03-08T13:23:28.852Z,99.90
2023-03-08T13:26:02.210Z,99.90
2023-03-08T13:28:46.104Z,99.90
2023-03-08T13:31:18.592Z,99.90
2023-03-08T13:33:50.892Z,99.90
2023-03-08T13:36:22.684Z,99.90
2023-03-08T13:38:58.045Z,99.90
2023-03-08T13:41:35.059Z,99.90
2023-03-08T13:44:06.795Z,99.90
2023-03-08T13:46:35.615Z,99.90
2023-03-08T13:49:02.519Z,99.90
2023-03-08T13:51:29.410Z,99.90
2023-03-08T13:53:56.537Z,99.90
2023-03-08T13:56:26.019Z,99.90
2023-03-08T13:58:57.960Z,99.90
2023-03-08T14:01:25.824Z,99.90
2023-03-08T14:03:55.083Z,99.90
2023-03-08T14:06:23.772Z,99.90
2023-03-08T14:08:51.074Z,99.90
2023-03-08T14:11:26.975Z,99.90
2023-03-08T14:13:54.964Z,99.90
2023-03-08T14:16:26.152Z,99.90
2023-03-08T14:18:53.114Z,99.90
2023-03-08T14:21:22.139Z,99.90
2023-03-08T14:23:56.897Z,99.90
2023-03-08T14:26:36.998Z,99.90
2023-03-08T14:29:19.791Z,99.70
2023-03-08T14:31:59.928Z,98.80
2023-03-08T14:34:29.479Z,97.90
2023-03-08T14:37:05.397Z,97.50
2023-03-08T14:39:33.542Z,97.00
2023-03-08T14:42:22.855Z,97.30
2023-03-08T14:44:53.587Z,96.80
2023-03-08T14:47:24.246Z,96.50
2023-03-08T14:50:02.598Z,95.00
2023-03-08T14:52:30.968Z,95.60
2023-03-08T14:54:57.860Z,96.00
2023-03-08T14:57:26.210Z,95.60
2023-03-08T14:59:55.644Z,95.50
2023-03-08T15:02:22.589Z,95.00
2023-03-08T15:04:49.384Z,95.90
2023-03-08T15:07:23.356Z,95.40
2023-03-08T15:09:50.925Z,94.50
2023-03-08T15:12:18.383Z,95.00
2023-03-08T15:14:45.447Z,95.20
2023-03-08T15:17:12.297Z,96.70
2023-03-08T15:19:39.090Z,97.30
2023-03-08T15:22:06.265Z,97.80
2023-03-08T15:24:33.149Z,98.40
2023-03-08T15:27:00.003Z,99.80
2023-03-08T15:29:28.971Z,99.90
2023-03-08T15:31:55.936Z,99.90
2023-03-08T15:34:22.891Z,99.90
2023-03-08T15:36:50.325Z,99.90
2023-03-08T15:39:17.301Z,99.90
2023-03-08T15:41:44.152Z,99.90
2023-03-08T15:44:10.984Z,99.90
2023-03-08T15:46:38.234Z,99.90
2023-03-08T15:49:05.297Z,99.90
2023-03-08T15:51:34.289Z,99.90
2023-03-08T15:54:01.719Z,99.90
2023-03-08T15:56:28.596Z,99.90
2023-03-08T15:58:55.455Z,99.90
2023-03-08T16:01:24.267Z,99.90
2023-03-08T16:03:55.196Z,99.90
2023-03-08T16:06:22.632Z,99.90
2023-03-08T16:08:49.779Z,99.90
2023-03-08T16:11:18.352Z,99.90
2023-03-08T16:13:45.176Z,99.90
2023-03-08T16:16:12.122Z,99.90
2023-03-08T16:18:40.465Z,99.90
2023-03-08T16:21:08.918Z,99.90
2023-03-08T16:23:36.536Z,99.90
2023-03-08T16:26:15.190Z,99.90
2023-03-08T16:28:43.778Z,99.90
2023-03-08T16:31:10.688Z,99.90
2023-03-08T16:33:37.628Z,99.90
2023-03-08T16:36:04.845Z,99.90
2023-03-08T16:38:31.802Z,99.90
2023-03-08T16:41:12.333Z,99.90
2023-03-08T16:43:46.725Z,99.90
2023-03-08T16:46:15.674Z,99.90
2023-03-08T16:48:42.507Z,99.90
2023-03-08T16:51:14.541Z,99.90
2023-03-08T16:53:41.379Z,99.90
2023-03-08T16:56:08.246Z,99.90
2023-03-08T16:58:35.134Z,99.90
2023-03-08T17:01:01.989Z,99.90
2023-03-08T17:03:28.879Z,99.90
2023-03-08T17:05:55.688Z,99.90
2023-03-08T17:08:22.572Z,99.90
2023-03-08T17:10:49.824Z,99.90
2023-03-08T17:13:16.642Z,99.90
2023-03-08T17:15:44.780Z,99.90
2023-03-08T17:18:11.816Z,99.90
2023-03-08T17:20:40.006Z,99.90
2023-03-08T17:23:07.000Z,99.90
2023-03-08T17:25:35.615Z,99.90
2023-03-08T17:28:03.659Z,99.90
2023-03-08T17:30:30.891Z,99.90
2023-03-08T17:32:57.925Z,99.90
2023-03-08T17:35:25.761Z,99.90
2023-03-08T17:37:52.649Z,99.90
2023-03-08T17:40:19.756Z,99.90
2023-03-08T17:42:49.299Z,99.90
2023-03-08T17:45:16.361Z,99.90
2023-03-08T17:47:43.357Z,99.90
2023-03-08T17:50:11.396Z,99.90
2023-03-08T17:52:38.240Z,99.90
2023-03-08T17:55:05.459Z,99.90
2023-03-08T17:57:32.301Z,99.90
2023-03-08T17:59:59.184Z,99.90
2023-03-08T18:02:26.970Z,99.90
2023-03-08T18:04:55.998Z,99.90
2023-03-08T18:07:24.921Z,99.90
2023-03-08T18:09:51.755Z,99.90
2023-03-08T18:12:18.568Z,99.90
2023-03-08T18:14:47.283Z,99.90
2023-03-08T18:17:14.167Z,99.90
2023-03-08T18:19:41.982Z,99.90
2023-03-08T18:22:08.936Z,99.90
2023-03-08T18:24:35.842Z,99.90
2023-03-08T18:27:05.464Z,99.90
2023-03-08T18:29:33.777Z,99.90
2023-03-08T18:32:00.790Z,99.90
2023-03-08T18:34:27.888Z,99.90
2023-03-08T18:36:58.872Z,99.90
2023-03-08T18:39:25.876Z,99.90
2023-03-08T18:41:56.714Z,99.90
2023-03-08T18:44:26.770Z,99.90
2023-03-08T18:46:53.844Z,99.90
2023-03-08T18:49:20.764Z,99.90
2023-03-08T18:51:47.613Z,99.90
2023-03-08T18:54:17.416Z,99.90
2023-03-08T18:56:44.461Z,99.90
2023-03-08T18:59:12.502Z,99.90
2023-03-08T19:01:40.198Z,99.90
2023-03-08T19:04:08.063Z,99.90
2023-03-08T19:06:35.757Z,99.90
2023-03-08T19:09:13.119Z,99.90
2023-03-08T19:11:40.178Z,99.90
2023-03-08T19:14:07.288Z,99.90
2023-03-08T19:16:35.553Z,99.90
2023-03-08T19:19:07.860Z,99.90
2023-03-08T19:21:37.107Z,99.90
2023-03-08T19:24:04.861Z,99.90
2023-03-08T19:26:36.376Z,99.90
2023-03-08T19:29:09.444Z,99.90
2023-03-08T19:31:41.883Z,99.90
2023-03-08T19:34:08.857Z,99.90
2023-03-08T19:36:36.352Z,99.90
2023-03-08T19:39:04.635Z,99.90
2023-03-08T19:41:31.669Z,99.90
2023-03-08T19:43:59.041Z,99.90
2023-03-08T19:46:26.046Z,99.90
2023-03-08T19:48:53.132Z,99.90
2023-03-08T19:51:20.500Z,99.90
2023-03-08T19:53:47.418Z,99.90
2023-03-08T19:56:18.933Z,99.90
2023-03-08T19:58:46.107Z,99.90
2023-03-08T20:01:16.693Z,99.90
2023-03-08T20:03:43.841Z,99.90
2023-03-08T20:06:12.832Z,99.90
2023-03-08T20:08:40.542Z,99.90
2023-03-08T20:11:07.346Z,99.90
2023-03-08T20:13:34.246Z,99.90
2023-03-08T20:16:01.030Z,99.90
2023-03-08T20:18:29.209Z,99.90
2023-03-08T20:20:58.485Z,99.90
2023-03-08T20:23:25.857Z,99.90
2023-03-08T20:25:52.766Z,99.90
2023-03-08T20:28:19.593Z,99.90
2023-03-08T20:30:47.806Z,99.90
2023-03-08T20:33:15.139Z,99.90
2023-03-08T20:35:42.467Z,99.90
2023-03-08T20:38:09.453Z,99.90
2023-03-08T20:40:38.169Z,99.90
2023-03-08T20:43:10.925Z,99.90
2023-03-08T20:45:38.396Z,99.90
2023-03-08T20:48:05.378Z,99.90
2023-03-08T20:50:32.904Z,99.90
2023-03-08T20:52:59.788Z,99.90
2023-03-08T20:55:26.582Z,99.90
2023-03-08T20:57:56.473Z,99.90
2023-03-08T21:00:25.482Z,99.90
2023-03-08T21:02:52.613Z,99.90
2023-03-08T21:05:19.436Z,99.90
2023-03-08T21:07:46.260Z,99.90
2023-03-08T21:10:13.840Z,99.90
2023-03-08T21:12:40.854Z,99.90
2023-03-08T21:15:08.448Z,99.90
2023-03-08T21:17:37.964Z,99.90
2023-03-08T21:20:05.783Z,99.90
2023-03-08T21:22:33.068Z,99.90
2023-03-08T21:24:59.962Z,99.90
2023-03-08T21:27:26.821Z,99.90
2023-03-08T21:29:55.381Z,99.90
2023-03-08T21:32:22.274Z,99.90
2023-03-08T21:34:49.232Z,99.90
2023-03-08T21:37:16.145Z,99.90
2023-03-08T21:39:42.977Z,99.90
2023-03-08T21:42:09.870Z,99.90
2023-03-08T21:44:36.833Z,99.90
2023-03-08T21:47:03.967Z,99.90
2023-03-08T21:49:36.995Z,99.90
2023-03-08T21:52:04.049Z,99.90
2023-03-08T21:54:33.211Z,99.90
2023-03-08T21:57:00.288Z,99.90
2023-03-08T21:59:28.816Z,99.90
2023-03-08T22:01:58.408Z,99.90
2023-03-08T22:04:25.866Z,99.90
2023-03-08T22:06:52.903Z,99.90
2023-03-08T22:09:19.711Z,99.90
2023-03-08T22:11:48.815Z,99.90
2023-03-08T22:14:15.645Z,99.90
2023-03-08T22:16:42.631Z,99.90
2023-03-08T22:19:09.683Z,99.90
2023-03-08T22:21:36.595Z,99.90
2023-03-08T22:24:03.445Z,99.90
2023-03-08T22:26:30.552Z,99.90
2023-03-08T22:28:57.634Z,99.90
2023-03-08T22:31:25.967Z,99.90
2023-03-08T22:33:53.044Z,99.90
2023-03-08T22:36:20.479Z,99.90
2023-03-08T22:38:47.322Z,99.90
2023-03-08T22:41:16.506Z,99.90
2023-03-08T22:43:43.435Z,99.90
2023-03-08T22:46:13.130Z,99.90
2023-03-08T22:48:40.087Z,99.90
2023-03-08T22:51:11.081Z,99.90
2023-03-08T22:53:39.093Z,99.90
2023-03-08T22:56:06.723Z,99.90
2023-03-08T22:58:33.615Z,99.90
2023-03-08T23:01:00.494Z,99.90
2023-03-08T23:03:27.376Z,99.90
2023-03-08T23:05:54.212Z,99.90
2023-03-08T23:08:22.669Z,99.90
2023-03-08T23:10:51.045Z,99.90
2023-03-08T23:13:32.668Z,99.90
2023-03-08T23:16:00.083Z,99.90
2023-03-08T23:18:27.024Z,99.90
2023-03-08T23:20:53.896Z,99.90
2023-03-08T23:23:24.970Z,99.90
2023-03-08T23:25:52.193Z,99.90
2023-03-08T23:28:19.406Z,99.90
2023-03-08T23:30:46.203Z,99.90
2023-03-08T23:33:13.073Z,99.90
2023-03-08T23:35:39.968Z,99.90
2023-03-08T23:38:06.902Z,99.90
2023-03-08T23:40:33.689Z,99.90
2023-03-08T23:43:00.505Z,99.90
2023-03-08T23:45:27.334Z,99.90
2023-03-08T23:47:54.139Z,99.90
2023-03-08T23:50:20.921Z,99.90
2023-03-08T23:52:47.726Z,99.90
2023-03-08T23:55:14.580Z,99.90
2023-03-08T23:57:41.397Z,99.90
